sensor_id;sensor_type;location;lat;lon;timestamp;P1;durP1;ratioP1;P2;durP2;ratioP2
80647;SDS011;70012;0.000;0.000;2023-05-17T00:01:06;4.00;;;1.90;;
80647;SDS011;70012;0.000;0.000;2023-05-17T00:03:32;5.55;;;2.47;;
80647;SDS011;70012;0.000;0.000;2023-05-17T00:05:59;5.03;;;2.00;;
80647;SDS011;70012;0.000;0.000;2023-05-17T00:08:25;5.75;;;1.90;;
80647;SDS011;70012;0.000;0.000;2023-05-17T00:10:52;5.35;;;2.00;;
80647;SDS011;70012;0.000;0.000;2023-05-17T00:13:19;6.00;;;2.38;;
80647;SDS011;70012;0.000;0.000;2023-05-17T00:15:46;6.68;;;2.30;;
80647;SDS011;70012;0.000;0.000;2023-05-17T00:18:12;3.80;;;1.90;;
80647;SDS011;70012;0.000;0.000;2023-05-17T00:20:39;3.83;;;2.13;;
80647;SDS011;70012;0.000;0.000;2023-05-17T00:23:06;6.97;;;2.42;;
80647;SDS011;70012;0.000;0.000;2023-05-17T00:25:32;4.38;;;2.03;;
80647;SDS011;70012;0.000;0.000;2023-05-17T00:27:59;6.65;;;2.28;;
80647;SDS011;70012;0.000;0.000;2023-05-17T00:32:52;7.05;;;1.88;;
80647;SDS011;70012;0.000;0.000;2023-05-17T00:35:19;4.63;;;1.92;;
80647;SDS011;70012;0.000;0.000;2023-05-17T00:37:46;5.65;;;2.22;;
80647;SDS011;70012;0.000;0.000;2023-05-17T00:42:41;8.85;;;2.60;;
80647;SDS011;70012;0.000;0.000;2023-05-17T00:47:34;3.42;;;2.03;;
80647;SDS011;70012;0.000;0.000;2023-05-17T00:50:04;2.92;;;2.40;;
80647;SDS011;70012;0.000;0.000;2023-05-17T00:52:31;4.28;;;2.20;;
80647;SDS011;70012;0.000;0.000;2023-05-17T00:54:58;11.30;;;2.45;;
80647;SDS011;70012;0.000;0.000;2023-05-17T00:57:25;3.72;;;2.08;;
80647;SDS011;70012;0.000;0.000;2023-05-17T00:59:54;7.78;;;2.47;;
80647;SDS011;70012;0.000;0.000;2023-05-17T01:02:21;5.43;;;2.50;;
80647;SDS011;70012;0.000;0.000;2023-05-17T01:04:48;6.32;;;2.58;;
80647;SDS011;70012;0.000;0.000;2023-05-17T01:07:15;6.60;;;2.33;;
80647;SDS011;70012;0.000;0.000;2023-05-17T01:09:43;5.57;;;2.30;;
80647;SDS011;70012;0.000;0.000;2023-05-17T01:20:26;6.28;;;2.45;;
80647;SDS011;70012;0.000;0.000;2023-05-17T01:25:51;6.00;;;2.40;;
80647;SDS011;70012;0.000;0.000;2023-05-17T01:28:25;5.82;;;2.40;;
80647;SDS011;70012;0.000;0.000;2023-05-17T01:30:53;5.93;;;2.83;;
80647;SDS011;70012;0.000;0.000;2023-05-17T01:33:21;4.07;;;2.22;;
80647;SDS011;70012;0.000;0.000;2023-05-17T01:35:48;7.40;;;2.63;;
80647;SDS011;70012;0.000;0.000;2023-05-17T01:38:15;4.55;;;2.63;;
80647;SDS011;70012;0.000;0.000;2023-05-17T01:40:47;5.88;;;2.67;;
80647;SDS011;70012;0.000;0.000;2023-05-17T01:43:27;5.25;;;2.60;;
80647;SDS011;70012;0.000;0.000;2023-05-17T01:46:11;9.90;;;3.00;;
80647;SDS011;70012;0.000;0.000;2023-05-17T01:48:55;7.50;;;2.53;;
80647;SDS011;70012;0.000;0.000;2023-05-17T01:51:32;4.63;;;2.50;;
80647;SDS011;70012;0.000;0.000;2023-05-17T01:54:04;6.28;;;3.10;;
80647;SDS011;70012;0.000;0.000;2023-05-17T01:56:38;5.82;;;2.90;;
80647;SDS011;70012;0.000;0.000;2023-05-17T01:59:08;7.90;;;2.95;;
80647;SDS011;70012;0.000;0.000;2023-05-17T02:01:40;6.13;;;3.28;;
80647;SDS011;70012;0.000;0.000;2023-05-17T02:04:08;7.93;;;3.30;;
80647;SDS011;70012;0.000;0.000;2023-05-17T02:06:35;9.88;;;3.22;;
80647;SDS011;70012;0.000;0.000;2023-05-17T02:09:02;7.63;;;3.35;;
80647;SDS011;70012;0.000;0.000;2023-05-17T02:11:29;9.00;;;3.85;;
80647;SDS011;70012;0.000;0.000;2023-05-17T02:13:56;10.38;;;4.00;;
80647;SDS011;70012;0.000;0.000;2023-05-17T02:16:24;8.10;;;4.13;;
80647;SDS011;70012;0.000;0.000;2023-05-17T02:18:50;7.57;;;3.75;;
80647;SDS011;70012;0.000;0.000;2023-05-17T02:21:17;6.35;;;3.65;;
80647;SDS011;70012;0.000;0.000;2023-05-17T02:23:45;6.75;;;3.72;;
80647;SDS011;70012;0.000;0.000;2023-05-17T02:26:11;11.68;;;4.13;;
80647;SDS011;70012;0.000;0.000;2023-05-17T02:28:38;9.02;;;3.50;;
80647;SDS011;70012;0.000;0.000;2023-05-17T02:31:06;17.70;;;5.85;;
80647;SDS011;70012;0.000;0.000;2023-05-17T02:33:34;9.10;;;3.40;;
80647;SDS011;70012;0.000;0.000;2023-05-17T02:36:01;17.65;;;4.07;;
80647;SDS011;70012;0.000;0.000;2023-05-17T02:38:27;9.57;;;3.63;;
80647;SDS011;70012;0.000;0.000;2023-05-17T02:40:54;16.17;;;3.83;;
80647;SDS011;70012;0.000;0.000;2023-05-17T02:43:21;9.43;;;3.53;;
80647;SDS011;70012;0.000;0.000;2023-05-17T02:48:14;8.85;;;3.28;;
80647;SDS011;70012;0.000;0.000;2023-05-17T02:53:08;6.40;;;3.08;;
80647;SDS011;70012;0.000;0.000;2023-05-17T02:55:34;9.10;;;4.30;;
80647;SDS011;70012;0.000;0.000;2023-05-17T02:58:01;7.15;;;3.90;;
80647;SDS011;70012;0.000;0.000;2023-05-17T03:00:29;8.07;;;3.10;;
80647;SDS011;70012;0.000;0.000;2023-05-17T03:02:55;11.25;;;3.90;;
80647;SDS011;70012;0.000;0.000;2023-05-17T03:05:22;7.68;;;3.72;;
80647;SDS011;70012;0.000;0.000;2023-05-17T03:07:49;7.43;;;3.33;;
80647;SDS011;70012;0.000;0.000;2023-05-17T03:10:15;12.73;;;3.67;;
80647;SDS011;70012;0.000;0.000;2023-05-17T03:12:43;6.63;;;3.50;;
80647;SDS011;70012;0.000;0.000;2023-05-17T03:17:36;5.85;;;3.38;;
80647;SDS011;70012;0.000;0.000;2023-05-17T03:20:03;9.63;;;3.75;;
80647;SDS011;70012;0.000;0.000;2023-05-17T03:22:31;7.28;;;3.45;;
80647;SDS011;70012;0.000;0.000;2023-05-17T03:24:58;6.30;;;3.35;;
80647;SDS011;70012;0.000;0.000;2023-05-17T03:27:25;10.20;;;3.75;;
80647;SDS011;70012;0.000;0.000;2023-05-17T03:29:51;5.95;;;3.60;;
80647;SDS011;70012;0.000;0.000;2023-05-17T03:32:18;7.55;;;4.05;;
80647;SDS011;70012;0.000;0.000;2023-05-17T03:34:44;7.35;;;3.70;;
80647;SDS011;70012;0.000;0.000;2023-05-17T03:37:11;7.47;;;3.90;;
80647;SDS011;70012;0.000;0.000;2023-05-17T03:39:38;9.15;;;3.92;;
80647;SDS011;70012;0.000;0.000;2023-05-17T03:42:05;7.45;;;4.25;;
80647;SDS011;70012;0.000;0.000;2023-05-17T03:44:31;10.00;;;4.43;;
80647;SDS011;70012;0.000;0.000;2023-05-17T03:46:58;8.25;;;4.35;;
80647;SDS011;70012;0.000;0.000;2023-05-17T03:49:25;8.63;;;4.10;;
80647;SDS011;70012;0.000;0.000;2023-05-17T03:51:51;8.10;;;3.90;;
80647;SDS011;70012;0.000;0.000;2023-05-17T03:54:18;11.90;;;4.40;;
80647;SDS011;70012;0.000;0.000;2023-05-17T03:56:44;10.30;;;4.25;;
80647;SDS011;70012;0.000;0.000;2023-05-17T03:59:14;8.57;;;4.32;;
80647;SDS011;70012;0.000;0.000;2023-05-17T04:01:42;6.95;;;4.22;;
80647;SDS011;70012;0.000;0.000;2023-05-17T04:04:09;11.82;;;4.50;;
80647;SDS011;70012;0.000;0.000;2023-05-17T04:06:36;12.40;;;4.50;;
80647;SDS011;70012;0.000;0.000;2023-05-17T04:09:03;12.43;;;4.70;;
80647;SDS011;70012;0.000;0.000;2023-05-17T04:11:30;11.10;;;4.53;;
80647;SDS011;70012;0.000;0.000;2023-05-17T04:13:58;11.60;;;4.80;;
80647;SDS011;70012;0.000;0.000;2023-05-17T04:16:25;9.25;;;4.22;;
80647;SDS011;70012;0.000;0.000;2023-05-17T04:18:53;6.10;;;4.07;;
80647;SDS011;70012;0.000;0.000;2023-05-17T04:21:20;8.60;;;4.75;;
80647;SDS011;70012;0.000;0.000;2023-05-17T04:26:14;12.98;;;5.28;;
80647;SDS011;70012;0.000;0.000;2023-05-17T04:28:41;12.98;;;5.03;;
80647;SDS011;70012;0.000;0.000;2023-05-17T04:31:08;11.20;;;4.85;;
80647;SDS011;70012;0.000;0.000;2023-05-17T04:33:35;15.07;;;5.80;;
80647;SDS011;70012;0.000;0.000;2023-05-17T04:36:02;8.73;;;4.90;;
80647;SDS011;70012;0.000;0.000;2023-05-17T04:38:29;15.05;;;6.80;;
80647;SDS011;70012;0.000;0.000;2023-05-17T04:41:04;13.55;;;4.72;;
80647;SDS011;70012;0.000;0.000;2023-05-17T04:43:31;10.23;;;5.28;;
80647;SDS011;70012;0.000;0.000;2023-05-17T04:45:58;10.43;;;5.03;;
80647;SDS011;70012;0.000;0.000;2023-05-17T04:50:53;12.02;;;5.13;;
80647;SDS011;70012;0.000;0.000;2023-05-17T04:56:20;15.32;;;6.03;;
80647;SDS011;70012;0.000;0.000;2023-05-17T04:58:48;10.15;;;4.78;;
80647;SDS011;70012;0.000;0.000;2023-05-17T05:01:17;11.18;;;5.68;;
80647;SDS011;70012;0.000;0.000;2023-05-17T05:03:43;13.23;;;5.82;;
80647;SDS011;70012;0.000;0.000;2023-05-17T05:06:10;14.02;;;5.63;;
80647;SDS011;70012;0.000;0.000;2023-05-17T05:08:37;11.18;;;5.40;;
80647;SDS011;70012;0.000;0.000;2023-05-17T05:11:04;13.38;;;5.65;;
80647;SDS011;70012;0.000;0.000;2023-05-17T05:13:30;14.88;;;5.70;;
80647;SDS011;70012;0.000;0.000;2023-05-17T05:15:57;16.80;;;6.28;;
80647;SDS011;70012;0.000;0.000;2023-05-17T05:18:24;13.15;;;5.63;;
80647;SDS011;70012;0.000;0.000;2023-05-17T05:20:51;24.00;;;7.47;;
80647;SDS011;70012;0.000;0.000;2023-05-17T05:23:17;11.18;;;5.82;;
80647;SDS011;70012;0.000;0.000;2023-05-17T05:25:44;14.13;;;6.32;;
80647;SDS011;70012;0.000;0.000;2023-05-17T05:28:11;15.70;;;6.28;;
80647;SDS011;70012;0.000;0.000;2023-05-17T05:30:38;22.70;;;7.20;;
80647;SDS011;70012;0.000;0.000;2023-05-17T05:33:04;12.68;;;6.57;;
80647;SDS011;70012;0.000;0.000;2023-05-17T05:35:31;17.95;;;7.18;;
80647;SDS011;70012;0.000;0.000;2023-05-17T05:37:58;19.17;;;7.07;;
80647;SDS011;70012;0.000;0.000;2023-05-17T05:40:25;14.05;;;7.10;;
80647;SDS011;70012;0.000;0.000;2023-05-17T05:45:18;12.02;;;7.00;;
80647;SDS011;70012;0.000;0.000;2023-05-17T05:47:47;15.43;;;6.90;;
80647;SDS011;70012;0.000;0.000;2023-05-17T05:50:14;17.30;;;7.63;;
80647;SDS011;70012;0.000;0.000;2023-05-17T05:52:40;22.52;;;7.70;;
80647;SDS011;70012;0.000;0.000;2023-05-17T05:55:07;16.85;;;7.85;;
80647;SDS011;70012;0.000;0.000;2023-05-17T05:57:34;12.82;;;7.07;;
80647;SDS011;70012;0.000;0.000;2023-05-17T06:00:01;16.75;;;8.02;;
80647;SDS011;70012;0.000;0.000;2023-05-17T06:02:28;21.30;;;8.55;;
80647;SDS011;70012;0.000;0.000;2023-05-17T06:04:55;20.00;;;8.68;;
80647;SDS011;70012;0.000;0.000;2023-05-17T06:07:22;19.45;;;9.05;;
80647;SDS011;70012;0.000;0.000;2023-05-17T06:09:48;19.58;;;8.50;;
80647;SDS011;70012;0.000;0.000;2023-05-17T06:12:15;15.77;;;9.20;;
80647;SDS011;70012;0.000;0.000;2023-05-17T06:14:42;17.50;;;9.55;;
80647;SDS011;70012;0.000;0.000;2023-05-17T06:17:09;24.88;;;11.52;;
80647;SDS011;70012;0.000;0.000;2023-05-17T06:19:36;20.00;;;9.32;;
80647;SDS011;70012;0.000;0.000;2023-05-17T06:22:03;22.42;;;10.05;;
80647;SDS011;70012;0.000;0.000;2023-05-17T06:24:29;22.10;;;10.73;;
80647;SDS011;70012;0.000;0.000;2023-05-17T06:26:56;18.73;;;10.38;;
80647;SDS011;70012;0.000;0.000;2023-05-17T06:29:22;22.77;;;11.00;;
80647;SDS011;70012;0.000;0.000;2023-05-17T06:31:49;23.08;;;10.57;;
80647;SDS011;70012;0.000;0.000;2023-05-17T06:34:16;26.95;;;11.77;;
80647;SDS011;70012;0.000;0.000;2023-05-17T06:36:42;25.58;;;12.20;;
80647;SDS011;70012;0.000;0.000;2023-05-17T06:39:09;26.95;;;12.45;;
80647;SDS011;70012;0.000;0.000;2023-05-17T06:44:03;22.77;;;14.05;;
80647;SDS011;70012;0.000;0.000;2023-05-17T06:46:29;28.42;;;14.65;;
80647;SDS011;70012;0.000;0.000;2023-05-17T06:48:56;27.30;;;15.60;;
80647;SDS011;70012;0.000;0.000;2023-05-17T06:51:23;28.67;;;14.43;;
80647;SDS011;70012;0.000;0.000;2023-05-17T06:53:49;32.33;;;15.40;;
80647;SDS011;70012;0.000;0.000;2023-05-17T06:56:16;26.42;;;15.75;;
80647;SDS011;70012;0.000;0.000;2023-05-17T06:58:43;27.08;;;13.68;;
80647;SDS011;70012;0.000;0.000;2023-05-17T07:01:09;26.85;;;14.45;;
80647;SDS011;70012;0.000;0.000;2023-05-17T07:03:36;41.60;;;17.50;;
80647;SDS011;70012;0.000;0.000;2023-05-17T07:06:03;33.00;;;16.73;;
80647;SDS011;70012;0.000;0.000;2023-05-17T07:08:29;29.77;;;16.13;;
80647;SDS011;70012;0.000;0.000;2023-05-17T07:10:56;31.27;;;15.20;;
80647;SDS011;70012;0.000;0.000;2023-05-17T07:13:23;33.72;;;14.43;;
80647;SDS011;70012;0.000;0.000;2023-05-17T07:15:49;26.33;;;15.10;;
80647;SDS011;70012;0.000;0.000;2023-05-17T07:18:16;25.75;;;13.98;;
80647;SDS011;70012;0.000;0.000;2023-05-17T07:20:43;23.35;;;12.48;;
80647;SDS011;70012;0.000;0.000;2023-05-17T07:23:09;31.95;;;13.65;;
80647;SDS011;70012;0.000;0.000;2023-05-17T07:25:36;22.67;;;12.25;;
80647;SDS011;70012;0.000;0.000;2023-05-17T07:28:04;28.17;;;13.55;;
80647;SDS011;70012;0.000;0.000;2023-05-17T07:32:59;18.27;;;8.45;;
80647;SDS011;70012;0.000;0.000;2023-05-17T07:40:20;18.77;;;8.60;;
80647;SDS011;70012;0.000;0.000;2023-05-17T07:42:47;17.05;;;7.75;;
80647;SDS011;70012;0.000;0.000;2023-05-17T07:45:14;21.25;;;9.25;;
80647;SDS011;70012;0.000;0.000;2023-05-17T07:47:41;20.33;;;8.05;;
80647;SDS011;70012;0.000;0.000;2023-05-17T07:50:10;18.90;;;7.57;;
80647;SDS011;70012;0.000;0.000;2023-05-17T07:52:37;17.23;;;7.95;;
80647;SDS011;70012;0.000;0.000;2023-05-17T07:55:04;15.77;;;8.50;;
80647;SDS011;70012;0.000;0.000;2023-05-17T07:57:31;15.35;;;7.53;;
80647;SDS011;70012;0.000;0.000;2023-05-17T08:02:24;18.17;;;7.43;;
80647;SDS011;70012;0.000;0.000;2023-05-17T08:07:17;17.55;;;7.72;;
80647;SDS011;70012;0.000;0.000;2023-05-17T08:09:44;17.15;;;7.57;;
80647;SDS011;70012;0.000;0.000;2023-05-17T08:12:10;17.55;;;8.20;;
80647;SDS011;70012;0.000;0.000;2023-05-17T08:14:38;14.55;;;7.18;;
80647;SDS011;70012;0.000;0.000;2023-05-17T08:17:05;15.90;;;7.22;;
80647;SDS011;70012;0.000;0.000;2023-05-17T08:21:58;13.98;;;6.47;;
80647;SDS011;70012;0.000;0.000;2023-05-17T08:24:25;12.75;;;6.10;;
80647;SDS011;70012;0.000;0.000;2023-05-17T08:29:18;14.65;;;7.38;;
80647;SDS011;70012;0.000;0.000;2023-05-17T08:31:44;14.23;;;6.57;;
80647;SDS011;70012;0.000;0.000;2023-05-17T08:34:11;14.20;;;8.00;;
80647;SDS011;70012;0.000;0.000;2023-05-17T08:39:04;14.90;;;7.32;;
80647;SDS011;70012;0.000;0.000;2023-05-17T08:41:33;14.63;;;6.53;;
80647;SDS011;70012;0.000;0.000;2023-05-17T08:44:02;17.33;;;6.70;;
80647;SDS011;70012;0.000;0.000;2023-05-17T08:46:29;18.38;;;6.35;;
80647;SDS011;70012;0.000;0.000;2023-05-17T08:49:02;13.48;;;5.10;;
80647;SDS011;70012;0.000;0.000;2023-05-17T08:51:31;12.30;;;4.85;;
80647;SDS011;70012;0.000;0.000;2023-05-17T08:58:51;11.52;;;4.30;;
80647;SDS011;70012;0.000;0.000;2023-05-17T09:01:23;13.43;;;4.53;;
80647;SDS011;70012;0.000;0.000;2023-05-17T09:03:53;13.07;;;4.45;;
80647;SDS011;70012;0.000;0.000;2023-05-17T09:06:20;15.23;;;5.13;;
80647;SDS011;70012;0.000;0.000;2023-05-17T09:08:51;10.10;;;4.22;;
80647;SDS011;70012;0.000;0.000;2023-05-17T09:11:23;12.75;;;5.00;;
80647;SDS011;70012;0.000;0.000;2023-05-17T09:14:00;9.18;;;3.80;;
80647;SDS011;70012;0.000;0.000;2023-05-17T09:16:28;11.73;;;3.60;;
80647;SDS011;70012;0.000;0.000;2023-05-17T09:19:01;9.05;;;4.00;;
80647;SDS011;70012;0.000;0.000;2023-05-17T09:21:29;10.95;;;4.05;;
80647;SDS011;70012;0.000;0.000;2023-05-17T09:23:57;9.88;;;3.33;;
80647;SDS011;70012;0.000;0.000;2023-05-17T09:26:38;8.90;;;3.20;;
80647;SDS011;70012;0.000;0.000;2023-05-17T09:29:09;7.55;;;3.40;;
80647;SDS011;70012;0.000;0.000;2023-05-17T09:31:41;8.77;;;3.88;;
80647;SDS011;70012;0.000;0.000;2023-05-17T09:34:09;7.15;;;3.75;;
80647;SDS011;70012;0.000;0.000;2023-05-17T09:36:36;8.00;;;2.90;;
80647;SDS011;70012;0.000;0.000;2023-05-17T09:39:05;6.10;;;2.50;;
80647;SDS011;70012;0.000;0.000;2023-05-17T09:41:45;6.25;;;2.30;;
80647;SDS011;70012;0.000;0.000;2023-05-17T09:44:13;6.78;;;2.13;;
80647;SDS011;70012;0.000;0.000;2023-05-17T09:46:45;10.73;;;2.95;;
80647;SDS011;70012;0.000;0.000;2023-05-17T09:49:14;13.05;;;2.58;;
80647;SDS011;70012;0.000;0.000;2023-05-17T09:51:42;10.88;;;3.13;;
80647;SDS011;70012;0.000;0.000;2023-05-17T09:54:10;8.20;;;2.40;;
80647;SDS011;70012;0.000;0.000;2023-05-17T09:56:37;5.65;;;2.55;;
80647;SDS011;70012;0.000;0.000;2023-05-17T09:59:14;7.30;;;3.40;;
80647;SDS011;70012;0.000;0.000;2023-05-17T10:01:43;7.30;;;2.35;;
80647;SDS011;70012;0.000;0.000;2023-05-17T10:04:11;9.60;;;2.60;;
80647;SDS011;70012;0.000;0.000;2023-05-17T10:06:39;7.88;;;2.80;;
80647;SDS011;70012;0.000;0.000;2023-05-17T10:09:11;6.25;;;2.15;;
80647;SDS011;70012;0.000;0.000;2023-05-17T10:11:40;6.43;;;2.30;;
80647;SDS011;70012;0.000;0.000;2023-05-17T10:14:25;8.73;;;3.13;;
80647;SDS011;70012;0.000;0.000;2023-05-17T10:16:57;7.30;;;2.38;;
80647;SDS011;70012;0.000;0.000;2023-05-17T10:19:24;6.35;;;2.33;;
80647;SDS011;70012;0.000;0.000;2023-05-17T10:21:51;6.57;;;2.03;;
80647;SDS011;70012;0.000;0.000;2023-05-17T10:24:19;7.22;;;2.33;;
80647;SDS011;70012;0.000;0.000;2023-05-17T10:26:48;9.18;;;2.40;;
80647;SDS011;70012;0.000;0.000;2023-05-17T10:29:15;5.70;;;2.15;;
80647;SDS011;70012;0.000;0.000;2023-05-17T10:31:42;8.02;;;2.17;;
80647;SDS011;70012;0.000;0.000;2023-05-17T10:34:10;7.65;;;2.58;;
80647;SDS011;70012;0.000;0.000;2023-05-17T10:36:42;6.53;;;2.15;;
80647;SDS011;70012;0.000;0.000;2023-05-17T10:39:09;7.93;;;2.60;;
80647;SDS011;70012;0.000;0.000;2023-05-17T10:41:38;6.90;;;2.45;;
80647;SDS011;70012;0.000;0.000;2023-05-17T10:44:08;6.00;;;2.25;;
80647;SDS011;70012;0.000;0.000;2023-05-17T10:46:39;10.10;;;2.55;;
80647;SDS011;70012;0.000;0.000;2023-05-17T10:49:05;7.80;;;2.22;;
80647;SDS011;70012;0.000;0.000;2023-05-17T10:51:33;8.18;;;2.78;;
80647;SDS011;70012;0.000;0.000;2023-05-17T10:54:06;13.27;;;2.70;;
80647;SDS011;70012;0.000;0.000;2023-05-17T10:56:37;7.03;;;2.55;;
80647;SDS011;70012;0.000;0.000;2023-05-17T10:59:13;9.35;;;3.13;;
80647;SDS011;70012;0.000;0.000;2023-05-17T11:01:59;8.18;;;2.25;;
80647;SDS011;70012;0.000;0.000;2023-05-17T11:04:32;8.82;;;2.47;;
80647;SDS011;70012;0.000;0.000;2023-05-17T11:12:31;7.78;;;2.78;;
80647;SDS011;70012;0.000;0.000;2023-05-17T11:15:05;7.10;;;2.55;;
80647;SDS011;70012;0.000;0.000;2023-05-17T11:22:56;8.20;;;2.80;;
80647;SDS011;70012;0.000;0.000;2023-05-17T11:25:27;9.18;;;3.13;;
80647;SDS011;70012;0.000;0.000;2023-05-17T11:27:56;8.68;;;3.20;;
80647;SDS011;70012;0.000;0.000;2023-05-17T11:30:25;5.45;;;2.47;;
80647;SDS011;70012;0.000;0.000;2023-05-17T11:32:58;7.07;;;2.92;;
80647;SDS011;70012;0.000;0.000;2023-05-17T11:35:42;9.20;;;2.58;;
80647;SDS011;70012;0.000;0.000;2023-05-17T11:38:19;6.93;;;2.75;;
80647;SDS011;70012;0.000;0.000;2023-05-17T11:40:48;8.65;;;2.55;;
80647;SDS011;70012;0.000;0.000;2023-05-17T11:43:17;7.95;;;3.28;;
80647;SDS011;70012;0.000;0.000;2023-05-17T11:45:55;9.68;;;3.15;;
80647;SDS011;70012;0.000;0.000;2023-05-17T11:48:24;10.52;;;2.97;;
80647;SDS011;70012;0.000;0.000;2023-05-17T11:50:52;9.65;;;3.13;;
80647;SDS011;70012;0.000;0.000;2023-05-17T11:53:20;6.80;;;3.00;;
80647;SDS011;70012;0.000;0.000;2023-05-17T11:55:48;7.47;;;2.85;;
80647;SDS011;70012;0.000;0.000;2023-05-17T11:58:19;6.15;;;2.75;;
80647;SDS011;70012;0.000;0.000;2023-05-17T12:00:55;7.47;;;2.67;;
80647;SDS011;70012;0.000;0.000;2023-05-17T12:06:12;10.45;;;2.85;;
80647;SDS011;70012;0.000;0.000;2023-05-17T12:08:39;8.70;;;2.97;;
80647;SDS011;70012;0.000;0.000;2023-05-17T12:11:14;9.82;;;2.97;;
80647;SDS011;70012;0.000;0.000;2023-05-17T12:13:43;11.60;;;2.88;;
80647;SDS011;70012;0.000;0.000;2023-05-17T12:16:12;7.35;;;3.00;;
80647;SDS011;70012;0.000;0.000;2023-05-17T12:21:18;8.32;;;3.33;;
80647;SDS011;70012;0.000;0.000;2023-05-17T12:23:49;6.07;;;3.20;;
80647;SDS011;70012;0.000;0.000;2023-05-17T12:26:18;7.55;;;3.28;;
80647;SDS011;70012;0.000;0.000;2023-05-17T12:28:54;7.90;;;3.00;;
80647;SDS011;70012;0.000;0.000;2023-05-17T12:31:32;12.32;;;3.17;;
80647;SDS011;70012;0.000;0.000;2023-05-17T12:34:03;8.32;;;2.95;;
80647;SDS011;70012;0.000;0.000;2023-05-17T12:36:31;7.38;;;3.00;;
80647;SDS011;70012;0.000;0.000;2023-05-17T12:38:59;7.93;;;3.20;;
80647;SDS011;70012;0.000;0.000;2023-05-17T12:41:27;7.18;;;3.00;;
80647;SDS011;70012;0.000;0.000;2023-05-17T12:43:55;10.10;;;3.33;;
80647;SDS011;70012;0.000;0.000;2023-05-17T12:46:40;8.73;;;3.10;;
80647;SDS011;70012;0.000;0.000;2023-05-17T12:49:07;9.98;;;3.53;;
80647;SDS011;70012;0.000;0.000;2023-05-17T12:51:38;10.13;;;3.15;;
80647;SDS011;70012;0.000;0.000;2023-05-17T12:54:07;7.22;;;3.47;;
80647;SDS011;70012;0.000;0.000;2023-05-17T12:56:34;7.32;;;3.30;;
80647;SDS011;70012;0.000;0.000;2023-05-17T13:04:10;10.43;;;4.05;;
80647;SDS011;70012;0.000;0.000;2023-05-17T13:09:17;5.50;;;3.30;;
80647;SDS011;70012;0.000;0.000;2023-05-17T13:11:52;7.47;;;4.03;;
80647;SDS011;70012;0.000;0.000;2023-05-17T13:14:36;6.70;;;2.90;;
80647;SDS011;70012;0.000;0.000;2023-05-17T13:17:15;7.75;;;2.92;;
80647;SDS011;70012;0.000;0.000;2023-05-17T13:19:45;9.30;;;3.22;;
80647;SDS011;70012;0.000;0.000;2023-05-17T13:22:12;8.98;;;3.45;;
80647;SDS011;70012;0.000;0.000;2023-05-17T13:24:41;7.72;;;3.20;;
80647;SDS011;70012;0.000;0.000;2023-05-17T13:27:09;7.70;;;3.13;;
80647;SDS011;70012;0.000;0.000;2023-05-17T13:29:38;8.48;;;3.28;;
80647;SDS011;70012;0.000;0.000;2023-05-17T13:32:08;9.48;;;3.65;;
80647;SDS011;70012;0.000;0.000;2023-05-17T13:34:37;6.80;;;2.95;;
80647;SDS011;70012;0.000;0.000;2023-05-17T13:37:05;8.23;;;3.20;;
80647;SDS011;70012;0.000;0.000;2023-05-17T13:39:36;7.95;;;3.75;;
80647;SDS011;70012;0.000;0.000;2023-05-17T13:42:03;15.10;;;3.72;;
80647;SDS011;70012;0.000;0.000;2023-05-17T13:44:30;9.05;;;3.67;;
80647;SDS011;70012;0.000;0.000;2023-05-17T13:46:57;6.68;;;3.67;;
80647;SDS011;70012;0.000;0.000;2023-05-17T13:49:24;10.30;;;3.20;;
80647;SDS011;70012;0.000;0.000;2023-05-17T13:51:51;7.00;;;3.25;;
80647;SDS011;70012;0.000;0.000;2023-05-17T13:54:18;11.52;;;3.83;;
80647;SDS011;70012;0.000;0.000;2023-05-17T13:56:51;7.90;;;3.40;;
80647;SDS011;70012;0.000;0.000;2023-05-17T13:59:18;8.38;;;3.28;;
80647;SDS011;70012;0.000;0.000;2023-05-17T14:01:45;9.45;;;3.75;;
80647;SDS011;70012;0.000;0.000;2023-05-17T14:04:12;6.47;;;3.20;;
80647;SDS011;70012;0.000;0.000;2023-05-17T14:06:40;3.92;;;2.47;;
80647;SDS011;70012;0.000;0.000;2023-05-17T14:09:07;8.98;;;3.80;;
80647;SDS011;70012;0.000;0.000;2023-05-17T14:11:35;5.65;;;3.08;;
80647;SDS011;70012;0.000;0.000;2023-05-17T14:14:02;10.18;;;3.47;;
80647;SDS011;70012;0.000;0.000;2023-05-17T14:16:29;6.97;;;3.70;;
80647;SDS011;70012;0.000;0.000;2023-05-17T14:18:56;8.82;;;3.72;;
80647;SDS011;70012;0.000;0.000;2023-05-17T14:21:31;9.15;;;3.20;;
80647;SDS011;70012;0.000;0.000;2023-05-17T14:23:57;8.07;;;3.35;;
80647;SDS011;70012;0.000;0.000;2023-05-17T14:26:24;7.85;;;3.42;;
80647;SDS011;70012;0.000;0.000;2023-05-17T14:28:52;9.85;;;3.70;;
80647;SDS011;70012;0.000;0.000;2023-05-17T14:31:19;7.63;;;3.92;;
80647;SDS011;70012;0.000;0.000;2023-05-17T14:33:46;7.07;;;2.90;;
80647;SDS011;70012;0.000;0.000;2023-05-17T14:36:14;8.98;;;3.75;;
80647;SDS011;70012;0.000;0.000;2023-05-17T14:38:44;9.70;;;3.60;;
80647;SDS011;70012;0.000;0.000;2023-05-17T14:41:12;9.50;;;3.60;;
80647;SDS011;70012;0.000;0.000;2023-05-17T14:43:39;7.32;;;3.50;;
80647;SDS011;70012;0.000;0.000;2023-05-17T14:46:05;8.57;;;3.05;;
80647;SDS011;70012;0.000;0.000;2023-05-17T14:48:32;5.25;;;3.15;;
80647;SDS011;70012;0.000;0.000;2023-05-17T14:50:59;7.57;;;3.28;;
80647;SDS011;70012;0.000;0.000;2023-05-17T14:53:28;9.50;;;4.25;;
80647;SDS011;70012;0.000;0.000;2023-05-17T14:55:55;8.05;;;3.75;;
80647;SDS011;70012;0.000;0.000;2023-05-17T14:58:23;9.50;;;3.85;;
80647;SDS011;70012;0.000;0.000;2023-05-17T15:00:52;5.40;;;3.38;;
80647;SDS011;70012;0.000;0.000;2023-05-17T15:03:32;5.75;;;2.88;;
80647;SDS011;70012;0.000;0.000;2023-05-17T15:06:05;7.82;;;3.08;;
80647;SDS011;70012;0.000;0.000;2023-05-17T15:08:36;6.45;;;3.88;;
80647;SDS011;70012;0.000;0.000;2023-05-17T15:11:04;5.78;;;2.85;;
80647;SDS011;70012;0.000;0.000;2023-05-17T15:13:31;7.97;;;3.33;;
80647;SDS011;70012;0.000;0.000;2023-05-17T15:15:58;8.05;;;3.30;;
80647;SDS011;70012;0.000;0.000;2023-05-17T15:18:25;8.82;;;3.15;;
80647;SDS011;70012;0.000;0.000;2023-05-17T15:20:52;6.13;;;3.35;;
80647;SDS011;70012;0.000;0.000;2023-05-17T15:23:19;7.05;;;2.90;;
80647;SDS011;70012;0.000;0.000;2023-05-17T15:25:46;8.57;;;3.05;;
80647;SDS011;70012;0.000;0.000;2023-05-17T15:28:13;8.10;;;3.10;;
80647;SDS011;70012;0.000;0.000;2023-05-17T15:30:39;7.32;;;3.00;;
80647;SDS011;70012;0.000;0.000;2023-05-17T15:33:07;7.50;;;3.08;;
80647;SDS011;70012;0.000;0.000;2023-05-17T15:35:39;7.32;;;3.38;;
80647;SDS011;70012;0.000;0.000;2023-05-17T15:38:07;4.88;;;2.75;;
80647;SDS011;70012;0.000;0.000;2023-05-17T15:40:34;9.35;;;2.90;;
80647;SDS011;70012;0.000;0.000;2023-05-17T15:43:01;7.68;;;2.50;;
80647;SDS011;70012;0.000;0.000;2023-05-17T15:45:30;5.90;;;2.47;;
80647;SDS011;70012;0.000;0.000;2023-05-17T15:47:58;8.50;;;3.10;;
80647;SDS011;70012;0.000;0.000;2023-05-17T15:50:28;5.72;;;2.67;;
80647;SDS011;70012;0.000;0.000;2023-05-17T15:52:55;6.30;;;2.55;;
80647;SDS011;70012;0.000;0.000;2023-05-17T15:55:22;5.10;;;2.55;;
80647;SDS011;70012;0.000;0.000;2023-05-17T15:57:49;9.48;;;2.80;;
80647;SDS011;70012;0.000;0.000;2023-05-17T16:00:15;6.45;;;2.35;;
80647;SDS011;70012;0.000;0.000;2023-05-17T16:02:43;9.05;;;2.90;;
80647;SDS011;70012;0.000;0.000;2023-05-17T16:05:09;11.05;;;3.00;;
80647;SDS011;70012;0.000;0.000;2023-05-17T16:07:36;7.35;;;2.75;;
80647;SDS011;70012;0.000;0.000;2023-05-17T16:10:03;10.30;;;2.40;;
80647;SDS011;70012;0.000;0.000;2023-05-17T16:12:31;7.75;;;2.72;;
80647;SDS011;70012;0.000;0.000;2023-05-17T16:14:58;4.88;;;2.10;;
80647;SDS011;70012;0.000;0.000;2023-05-17T16:17:26;8.02;;;2.97;;
80647;SDS011;70012;0.000;0.000;2023-05-17T16:19:53;5.60;;;2.28;;
80647;SDS011;70012;0.000;0.000;2023-05-17T16:22:20;6.35;;;2.22;;
80647;SDS011;70012;0.000;0.000;2023-05-17T16:24:50;6.45;;;2.50;;
80647;SDS011;70012;0.000;0.000;2023-05-17T16:27:17;6.28;;;2.40;;
80647;SDS011;70012;0.000;0.000;2023-05-17T16:29:44;11.52;;;2.65;;